sensor_id;sensor_type;location;lat;lon;timestamp;temperature;humidity
57843;DHT22;43673;51.058;3.734;2022-08-03T00:02:25;22.90;99.90
57843;DHT22;43673;51.058;3.734;2022-08-03T00:04:52;22.90;99.90
57843;DHT22;43673;51.058;3.734;2022-08-03T00:07:18;22.80;99.90
57843;DHT22;43673;51.058;3.734;2022-08-03T00:09:44;22.80;99.90
57843;DHT22;43673;51.058;3.734;2022-08-03T00:12:10;22.80;99.90
57843;DHT22;43673;51.058;3.734;2022-08-03T00:14:35;22.80;99.90
57843;DHT22;43673;51.058;3.734;2022-08-03T00:17:01;22.70;99.90
57843;DHT22;43673;51.058;3.734;2022-08-03T00:19:28;22.60;99.90
57843;DHT22;43673;51.058;3.734;2022-08-03T00:21:53;22.60;99.90
57843;DHT22;43673;51.058;3.734;2022-08-03T00:24:19;22.60;99.90
57843;DHT22;43673;51.058;3.734;2022-08-03T00:26:45;22.60;99.90
57843;DHT22;43673;51.058;3.734;2022-08-03T00:29:10;22.50;99.90
57843;DHT22;43673;51.058;3.734;2022-08-03T00:31:36;22.50;99.90
57843;DHT22;43673;51.058;3.734;2022-08-03T00:34:02;22.50;99.90
57843;DHT22;43673;51.058;3.734;2022-08-03T00:36:28;22.50;99.90
57843;DHT22;43673;51.058;3.734;2022-08-03T00:38:54;22.50;99.90
57843;DHT22;43673;51.058;3.734;2022-08-03T00:41:20;22.50;99.90
57843;DHT22;43673;51.058;3.734;2022-08-03T00:43:46;22.50;99.90
57843;DHT22;43673;51.058;3.734;2022-08-03T00:46:12;22.40;99.90
57843;DHT22;43673;51.058;3.734;2022-08-03T00:48:38;22.40;99.90
57843;DHT22;43673;51.058;3.734;2022-08-03T00:51:04;22.40;99.90
57843;DHT22;43673;51.058;3.734;2022-08-03T00:53:31;22.40;99.90
57843;DHT22;43673;51.058;3.734;2022-08-03T00:55:57;22.30;99.90
57843;DHT22;43673;51.058;3.734;2022-08-03T00:58:23;22.30;99.90
57843;DHT22;43673;51.058;3.734;2022-08-03T01:00:49;22.30;99.90
57843;DHT22;43673;51.058;3.734;2022-08-03T01:03:14;22.30;99.90
57843;DHT22;43673;51.058;3.734;2022-08-03T01:05:59;22.20;99.90
57843;DHT22;43673;51.058;3.734;2022-08-03T01:14:08;22.10;99.90
57843;DHT22;43673;51.058;3.734;2022-08-03T01:16:51;22.10;99.90
57843;DHT22;43673;51.058;3.734;2022-08-03T01:25:04;22.10;99.90
57843;DHT22;43673;51.058;3.734;2022-08-03T01:30:43;21.90;99.90
57843;DHT22;43673;51.058;3.734;2022-08-03T01:33:18;21.90;99.90
57843;DHT22;43673;51.058;3.734;2022-08-03T01:35:49;21.90;99.90
57843;DHT22;43673;51.058;3.734;2022-08-03T01:38:26;21.90;99.90
57843;DHT22;43673;51.058;3.734;2022-08-03T01:40:53;21.80;99.90
57843;DHT22;43673;51.058;3.734;2022-08-03T01:43:24;21.80;99.90
57843;DHT22;43673;51.058;3.734;2022-08-03T01:45:54;21.80;99.90
57843;DHT22;43673;51.058;3.734;2022-08-03T01:48:20;21.80;99.90
57843;DHT22;43673;51.058;3.734;2022-08-03T01:50:48;21.80;99.90
57843;DHT22;43673;51.058;3.734;2022-08-03T01:53:16;22.00;99.90
57843;DHT22;43673;51.058;3.734;2022-08-03T01:55:46;22.00;99.90
57843;DHT22;43673;51.058;3.734;2022-08-03T01:58:14;22.10;99.90
57843;DHT22;43673;51.058;3.734;2022-08-03T02:00:41;22.20;99.90
57843;DHT22;43673;51.058;3.734;2022-08-03T02:03:11;22.20;99.90
57843;DHT22;43673;51.058;3.734;2022-08-03T02:05:38;22.20;99.90
57843;DHT22;43673;51.058;3.734;2022-08-03T02:08:07;22.30;99.90
57843;DHT22;43673;51.058;3.734;2022-08-03T02:10:34;22.50;99.90
57843;DHT22;43673;51.058;3.734;2022-08-03T02:13:02;22.50;99.90
57843;DHT22;43673;51.058;3.734;2022-08-03T02:15:29;22.40;99.90
57843;DHT22;43673;51.058;3.734;2022-08-03T02:17:56;22.60;99.90
57843;DHT22;43673;51.058;3.734;2022-08-03T02:20:23;22.50;99.90
57843;DHT22;43673;51.058;3.734;2022-08-03T02:22:49;22.50;99.90
57843;DHT22;43673;51.058;3.734;2022-08-03T02:25:15;22.50;99.90
57843;DHT22;43673;51.058;3.734;2022-08-03T02:27:53;22.50;99.90
57843;DHT22;43673;51.058;3.734;2022-08-03T02:30:20;22.60;99.90
57843;DHT22;43673;51.058;3.734;2022-08-03T02:32:51;22.70;99.90
57843;DHT22;43673;51.058;3.734;2022-08-03T02:35:20;22.70;99.90
57843;DHT22;43673;51.058;3.734;2022-08-03T02:37:51;22.80;99.90
57843;DHT22;43673;51.058;3.734;2022-08-03T02:40:19;22.70;99.90
57843;DHT22;43673;51.058;3.734;2022-08-03T02:42:46;22.80;99.90
57843;DHT22;43673;51.058;3.734;2022-08-03T02:45:15;22.80;99.90
57843;DHT22;43673;51.058;3.734;2022-08-03T02:47:42;22.70;99.90
57843;DHT22;43673;51.058;3.734;2022-08-03T02:50:11;22.70;99.90
57843;DHT22;43673;51.058;3.734;2022-08-03T02:52:38;22.60;99.90
57843;DHT22;43673;51.058;3.734;2022-08-03T02:55:06;22.60;99.90
57843;DHT22;43673;51.058;3.734;2022-08-03T02:57:34;22.50;99.90
57843;DHT22;43673;51.058;3.734;2022-08-03T03:00:02;22.60;99.90
57843;DHT22;43673;51.058;3.734;2022-08-03T03:02:29;22.60;99.90
57843;DHT22;43673;51.058;3.734;2022-08-03T03:04:55;22.40;99.90
57843;DHT22;43673;51.058;3.734;2022-08-03T03:07:21;22.50;99.90
57843;DHT22;43673;51.058;3.734;2022-08-03T03:09:48;22.40;99.90
57843;DHT22;43673;51.058;3.734;2022-08-03T03:12:15;22.40;99.90
57843;DHT22;43673;51.058;3.734;2022-08-03T03:14:41;22.40;99.90
57843;DHT22;43673;51.058;3.734;2022-08-03T03:17:10;22.30;99.90
57843;DHT22;43673;51.058;3.734;2022-08-03T03:19:38;22.30;99.90
57843;DHT22;43673;51.058;3.734;2022-08-03T03:22:06;22.30;99.90
57843;DHT22;43673;51.058;3.734;2022-08-03T03:24:34;22.40;99.90
57843;DHT22;43673;51.058;3.734;2022-08-03T03:27:00;22.40;99.90
57843;DHT22;43673;51.058;3.734;2022-08-03T03:29:27;22.40;99.90
57843;DHT22;43673;51.058;3.734;2022-08-03T03:31:53;22.40;99.90
57843;DHT22;43673;51.058;3.734;2022-08-03T03:34:19;22.40;99.90
57843;DHT22;43673;51.058;3.734;2022-08-03T03:36:45;22.40;99.90
57843;DHT22;43673;51.058;3.734;2022-08-03T03:39:11;22.40;99.90
57843;DHT22;43673;51.058;3.734;2022-08-03T03:41:38;22.30;99.90
57843;DHT22;43673;51.058;3.734;2022-08-03T03:44:04;22.40;99.90
57843;DHT22;43673;51.058;3.734;2022-08-03T03:46:30;22.30;99.90
57843;DHT22;43673;51.058;3.734;2022-08-03T03:48:56;22.30;99.90
57843;DHT22;43673;51.058;3.734;2022-08-03T03:51:22;22.30;99.90
57843;DHT22;43673;51.058;3.734;2022-08-03T03:56:20;22.20;99.90
57843;DHT22;43673;51.058;3.734;2022-08-03T03:58:46;22.10;99.90
57843;DHT22;43673;51.058;3.734;2022-08-03T04:01:12;22.10;99.90
57843;DHT22;43673;51.058;3.734;2022-08-03T04:03:37;22.00;99.90
57843;DHT22;43673;51.058;3.734;2022-08-03T04:06:04;22.00;99.90
57843;DHT22;43673;51.058;3.734;2022-08-03T04:08:49;22.00;99.90
57843;DHT22;43673;51.058;3.734;2022-08-03T04:11:49;22.00;99.90
57843;DHT22;43673;51.058;3.734;2022-08-03T04:14:20;22.00;99.90
57843;DHT22;43673;51.058;3.734;2022-08-03T04:16:55;21.90;99.90
57843;DHT22;43673;51.058;3.734;2022-08-03T04:19:36;21.90;99.90
57843;DHT22;43673;51.058;3.734;2022-08-03T04:22:05;22.00;99.90
57843;DHT22;43673;51.058;3.734;2022-08-03T04:24:45;22.00;99.90
57843;DHT22;43673;51.058;3.734;2022-08-03T04:27:14;22.00;99.90
57843;DHT22;43673;51.058;3.734;2022-08-03T04:29:44;22.00;99.90
57843;DHT22;43673;51.058;3.734;2022-08-03T04:32:11;22.00;99.90
57843;DHT22;43673;51.058;3.734;2022-08-03T04:34:38;22.00;99.90
57843;DHT22;43673;51.058;3.734;2022-08-03T04:37:10;22.00;99.90
57843;DHT22;43673;51.058;3.734;2022-08-03T04:39:37;22.10;99.90
57843;DHT22;43673;51.058;3.734;2022-08-03T04:42:06;22.20;99.90
57843;DHT22;43673;51.058;3.734;2022-08-03T04:44:36;22.30;99.90
57843;DHT22;43673;51.058;3.734;2022-08-03T04:47:03;22.20;99.90
57843;DHT22;43673;51.058;3.734;2022-08-03T04:49:29;22.20;99.90
57843;DHT22;43673;51.058;3.734;2022-08-03T04:51:55;22.30;99.90
57843;DHT22;43673;51.058;3.734;2022-08-03T04:54:20;22.40;99.90
57843;DHT22;43673;51.058;3.734;2022-08-03T04:56:46;22.60;99.90
57843;DHT22;43673;51.058;3.734;2022-08-03T04:59:12;22.70;99.90
57843;DHT22;43673;51.058;3.734;2022-08-03T05:01:41;22.80;99.90
57843;DHT22;43673;51.058;3.734;2022-08-03T05:04:07;23.00;99.90
57843;DHT22;43673;51.058;3.734;2022-08-03T05:06:32;23.40;99.90
57843;DHT22;43673;51.058;3.734;2022-08-03T05:08:58;24.00;99.90
57843;DHT22;43673;51.058;3.734;2022-08-03T05:11:24;25.10;99.90
57843;DHT22;43673;51.058;3.734;2022-08-03T05:13:49;26.30;99.90
57843;DHT22;43673;51.058;3.734;2022-08-03T05:16:15;27.30;97.30
57843;DHT22;43673;51.058;3.734;2022-08-03T05:18:41;28.00;95.50
57843;DHT22;43673;51.058;3.734;2022-08-03T05:21:08;28.80;93.90
57843;DHT22;43673;51.058;3.734;2022-08-03T05:23:34;29.50;92.50
57843;DHT22;43673;51.058;3.734;2022-08-03T05:26:00;30.20;90.70
57843;DHT22;43673;51.058;3.734;2022-08-03T05:28:25;30.70;88.70
57843;DHT22;43673;51.058;3.734;2022-08-03T05:30:51;31.30;86.20
57843;DHT22;43673;51.058;3.734;2022-08-03T05:33:17;31.80;83.30
57843;DHT22;43673;51.058;3.734;2022-08-03T05:35:42;32.40;80.80
57843;DHT22;43673;51.058;3.734;2022-08-03T05:38:08;32.90;78.40
57843;DHT22;43673;51.058;3.734;2022-08-03T05:40:34;33.50;75.90
57843;DHT22;43673;51.058;3.734;2022-08-03T05:43:00;34.00;72.80
57843;DHT22;43673;51.058;3.734;2022-08-03T05:45:26;34.30;71.30
57843;DHT22;43673;51.058;3.734;2022-08-03T05:47:51;34.60;69.80
57843;DHT22;43673;51.058;3.734;2022-08-03T05:50:19;34.80;68.60
57843;DHT22;43673;51.058;3.734;2022-08-03T05:52:45;35.10;68.20
57843;DHT22;43673;51.058;3.734;2022-08-03T05:55:12;35.20;66.30
57843;DHT22;43673;51.058;3.734;2022-08-03T05:57:38;35.80;64.80
57843;DHT22;43673;51.058;3.734;2022-08-03T06:00:08;36.20;64.00
57843;DHT22;43673;51.058;3.734;2022-08-03T06:02:34;36.80;61.40
57843;DHT22;43673;51.058;3.734;2022-08-03T06:05:00;37.20;59.60
57843;DHT22;43673;51.058;3.734;2022-08-03T06:07:26;37.60;58.50
57843;DHT22;43673;51.058;3.734;2022-08-03T06:09:52;37.90;57.40
57843;DHT22;43673;51.058;3.734;2022-08-03T06:12:17;38.10;56.60
57843;DHT22;43673;51.058;3.734;2022-08-03T06:14:43;38.30;56.00
57843;DHT22;43673;51.058;3.734;2022-08-03T06:17:09;38.70;55.20
57843;DHT22;43673;51.058;3.734;2022-08-03T06:19:35;39.00;54.00
57843;DHT22;43673;51.058;3.734;2022-08-03T06:22:02;39.10;53.30
57843;DHT22;43673;51.058;3.734;2022-08-03T06:24:28;39.10;53.40
57843;DHT22;43673;51.058;3.734;2022-08-03T06:26:57;39.30;52.60
57843;DHT22;43673;51.058;3.734;2022-08-03T06:29:24;39.40;52.10
57843;DHT22;43673;51.058;3.734;2022-08-03T06:31:50;39.40;52.00
57843;DHT22;43673;51.058;3.734;2022-08-03T06:34:16;39.60;51.60
57843;DHT22;43673;51.058;3.734;2022-08-03T06:36:41;39.70;50.90
57843;DHT22;43673;51.058;3.734;2022-08-03T06:39:07;39.70;50.60
57843;DHT22;43673;51.058;3.734;2022-08-03T06:41:33;40.00;50.00
57843;DHT22;43673;51.058;3.734;2022-08-03T06:43:59;39.60;50.10
57843;DHT22;43673;51.058;3.734;2022-08-03T06:46:24;39.60;50.20
57843;DHT22;43673;51.058;3.734;2022-08-03T06:48:50;39.70;50.10
57843;DHT22;43673;51.058;3.734;2022-08-03T06:51:16;40.00;49.70
57843;DHT22;43673;51.058;3.734;2022-08-03T06:53:42;39.70;49.70
57843;DHT22;43673;51.058;3.734;2022-08-03T06:56:07;39.40;49.90
57843;DHT22;43673;51.058;3.734;2022-08-03T06:58:33;39.10;50.30
57843;DHT22;43673;51.058;3.734;2022-08-03T07:00:59;38.80;50.60
57843;DHT22;43673;51.058;3.734;2022-08-03T07:03:25;38.60;50.90
57843;DHT22;43673;51.058;3.734;2022-08-03T07:05:52;38.60;51.10
57843;DHT22;43673;51.058;3.734;2022-08-03T07:08:18;38.60;51.00
57843;DHT22;43673;51.058;3.734;2022-08-03T07:10:44;38.40;51.40
57843;DHT22;43673;51.058;3.734;2022-08-03T07:13:10;38.50;51.40
57843;DHT22;43673;51.058;3.734;2022-08-03T07:15:36;38.70;51.10
57843;DHT22;43673;51.058;3.734;2022-08-03T07:18:06;38.40;51.10
57843;DHT22;43673;51.058;3.734;2022-08-03T07:20:32;38.70;51.00
57843;DHT22;43673;51.058;3.734;2022-08-03T07:22:58;38.80;50.90
57843;DHT22;43673;51.058;3.734;2022-08-03T07:25:24;38.80;50.60
57843;DHT22;43673;51.058;3.734;2022-08-03T07:27:50;38.90;50.60
57843;DHT22;43673;51.058;3.734;2022-08-03T07:30:17;39.20;50.80
57843;DHT22;43673;51.058;3.734;2022-08-03T07:35:19;39.00;50.00
57843;DHT22;43673;51.058;3.734;2022-08-03T07:37:47;39.30;50.00
57843;DHT22;43673;51.058;3.734;2022-08-03T07:40:13;39.60;50.00
57843;DHT22;43673;51.058;3.734;2022-08-03T07:42:39;39.90;49.10
57843;DHT22;43673;51.058;3.734;2022-08-03T07:45:06;40.00;48.80
57843;DHT22;43673;51.058;3.734;2022-08-03T07:47:32;39.70;48.40
57843;DHT22;43673;51.058;3.734;2022-08-03T07:50:00;39.30;48.80
57843;DHT22;43673;51.058;3.734;2022-08-03T07:52:26;39.00;49.70
57843;DHT22;43673;51.058;3.734;2022-08-03T07:55:10;39.00;49.60
57843;DHT22;43673;51.058;3.734;2022-08-03T07:57:36;39.30;49.20
57843;DHT22;43673;51.058;3.734;2022-08-03T08:00:10;39.20;49.00
57843;DHT22;43673;51.058;3.734;2022-08-03T08:02:36;39.30;48.90
57843;DHT22;43673;51.058;3.734;2022-08-03T08:05:02;39.60;49.10
57843;DHT22;43673;51.058;3.734;2022-08-03T08:07:28;39.70;48.60
57843;DHT22;43673;51.058;3.734;2022-08-03T08:09:54;39.50;48.60
57843;DHT22;43673;51.058;3.734;2022-08-03T08:12:21;39.60;48.80
57843;DHT22;43673;51.058;3.734;2022-08-03T08:14:47;39.70;48.60
57843;DHT22;43673;51.058;3.734;2022-08-03T08:17:13;40.00;48.40
57843;DHT22;43673;51.058;3.734;2022-08-03T08:22:10;40.20;47.80
57843;DHT22;43673;51.058;3.734;2022-08-03T08:24:36;40.20;47.90
57843;DHT22;43673;51.058;3.734;2022-08-03T08:27:02;40.20;48.10
57843;DHT22;43673;51.058;3.734;2022-08-03T08:29:28;40.50;48.00
57843;DHT22;43673;51.058;3.734;2022-08-03T08:31:53;40.30;47.20
57843;DHT22;43673;51.058;3.734;2022-08-03T08:34:19;40.00;47.70
57843;DHT22;43673;51.058;3.734;2022-08-03T08:36:45;40.00;48.00
57843;DHT22;43673;51.058;3.734;2022-08-03T08:39:10;39.70;48.90
57843;DHT22;43673;51.058;3.734;2022-08-03T08:41:36;39.90;48.50
57843;DHT22;43673;51.058;3.734;2022-08-03T08:44:04;39.80;47.80
57843;DHT22;43673;51.058;3.734;2022-08-03T08:49:08;39.80;48.00
57843;DHT22;43673;51.058;3.734;2022-08-03T08:51:38;39.80;47.80
57843;DHT22;43673;51.058;3.734;2022-08-03T08:54:07;39.60;47.90
57843;DHT22;43673;51.058;3.734;2022-08-03T08:56:35;39.80;47.80
57843;DHT22;43673;51.058;3.734;2022-08-03T08:59:02;39.90;47.80
57843;DHT22;43673;51.058;3.734;2022-08-03T09:01:29;39.90;47.80
57843;DHT22;43673;51.058;3.734;2022-08-03T09:03:55;40.10;47.60
57843;DHT22;43673;51.058;3.734;2022-08-03T09:06:21;40.10;47.10
57843;DHT22;43673;51.058;3.734;2022-08-03T09:08:46;39.80;47.00
57843;DHT22;43673;51.058;3.734;2022-08-03T09:11:12;39.70;47.70
57843;DHT22;43673;51.058;3.734;2022-08-03T09:13:38;39.60;47.70
57843;DHT22;43673;51.058;3.734;2022-08-03T09:16:16;39.50;47.50
57843;DHT22;43673;51.058;3.734;2022-08-03T09:18:52;39.50;48.30
57843;DHT22;43673;51.058;3.734;2022-08-03T09:21:27;39.40;47.70
57843;DHT22;43673;51.058;3.734;2022-08-03T09:23:57;39.60;47.50
57843;DHT22;43673;51.058;3.734;2022-08-03T09:26:27;39.50;47.30
57843;DHT22;43673;51.058;3.734;2022-08-03T09:29:02;39.40;47.60
57843;DHT22;43673;51.058;3.734;2022-08-03T09:31:36;39.60;47.40
57843;DHT22;43673;51.058;3.734;2022-08-03T09:34:07;39.80;46.80
57843;DHT22;43673;51.058;3.734;2022-08-03T09:36:44;40.20;46.60
57843;DHT22;43673;51.058;3.734;2022-08-03T09:39:13;39.90;46.40
57843;DHT22;43673;51.058;3.734;2022-08-03T09:41:41;39.70;46.50
57843;DHT22;43673;51.058;3.734;2022-08-03T09:44:07;39.90;46.90
57843;DHT22;43673;51.058;3.734;2022-08-03T09:49:14;39.80;46.70
57843;DHT22;43673;51.058;3.734;2022-08-03T09:51:40;40.20;46.20
57843;DHT22;43673;51.058;3.734;2022-08-03T09:54:06;40.50;46.50
57843;DHT22;43673;51.058;3.734;2022-08-03T09:56:42;40.70;45.90
57843;DHT22;43673;51.058;3.734;2022-08-03T09:59:10;41.00;45.20
57843;DHT22;43673;51.058;3.734;2022-08-03T10:01:37;41.10;44.60
57843;DHT22;43673;51.058;3.734;2022-08-03T10:04:13;41.10;44.70
57843;DHT22;43673;51.058;3.734;2022-08-03T10:07:07;41.30;44.70
57843;DHT22;43673;51.058;3.734;2022-08-03T10:09:34;41.00;44.30
57843;DHT22;43673;51.058;3.734;2022-08-03T10:12:11;41.40;44.00
57843;DHT22;43673;51.058;3.734;2022-08-03T10:14:38;41.50;43.90
57843;DHT22;43673;51.058;3.734;2022-08-03T10:17:05;42.00;43.20
57843;DHT22;43673;51.058;3.734;2022-08-03T10:19:31;42.40;43.30
57843;DHT22;43673;51.058;3.734;2022-08-03T10:22:05;42.20;42.70
57843;DHT22;43673;51.058;3.734;2022-08-03T10:24:34;42.20;42.90
57843;DHT22;43673;51.058;3.734;2022-08-03T10:27:03;41.80;43.10
57843;DHT22;43673;51.058;3.734;2022-08-03T10:29:36;42.10;43.10
57843;DHT22;43673;51.058;3.734;2022-08-03T10:34:39;41.40;43.60
57843;DHT22;43673;51.058;3.734;2022-08-03T10:37:09;41.20;43.50
57843;DHT22;43673;51.058;3.734;2022-08-03T10:39:36;40.90;43.70
57843;DHT22;43673;51.058;3.734;2022-08-03T10:42:02;40.00;44.50
57843;DHT22;43673;51.058;3.734;2022-08-03T10:44:38;39.70;45.70
57843;DHT22;43673;51.058;3.734;2022-08-03T10:47:04;39.70;45.40
57843;DHT22;43673;51.058;3.734;2022-08-03T10:49:31;39.30;45.90
57843;DHT22;43673;51.058;3.734;2022-08-03T10:51:57;39.20;46.10
57843;DHT22;43673;51.058;3.734;2022-08-03T10:54:43;39.20;46.60
57843;DHT22;43673;51.058;3.734;2022-08-03T10:57:52;39.10;46.30
57843;DHT22;43673;51.058;3.734;2022-08-03T11:00:23;38.90;46.80
57843;DHT22;43673;51.058;3.734;2022-08-03T11:03:02;38.90;46.60
57843;DHT22;43673;51.058;3.734;2022-08-03T11:05:29;38.40;46.90
57843;DHT22;43673;51.058;3.734;2022-08-03T11:08:22;37.90;47.50
57843;DHT22;43673;51.058;3.734;2022-08-03T11:10:50;37.70;48.10
57843;DHT22;43673;51.058;3.734;2022-08-03T11:13:17;37.60;48.50
57843;DHT22;43673;51.058;3.734;2022-08-03T11:15:46;37.20;48.50
57843;DHT22;43673;51.058;3.734;2022-08-03T11:18:14;37.00;49.20
57843;DHT22;43673;51.058;3.734;2022-08-03T11:20:55;37.00;49.30
57843;DHT22;43673;51.058;3.734;2022-08-03T11:23:44;37.00;49.30
57843;DHT22;43673;51.058;3.734;2022-08-03T11:26:17;36.80;49.80
57843;DHT22;43673;51.058;3.734;2022-08-03T11:28:45;37.10;49.40
57843;DHT22;43673;51.058;3.734;2022-08-03T11:34:03;37.20;49.00
57843;DHT22;43673;51.058;3.734;2022-08-03T11:36:30;37.10;48.70
57843;DHT22;43673;51.058;3.734;2022-08-03T11:39:14;36.90;48.80
57843;DHT22;43673;51.058;3.734;2022-08-03T11:41:41;36.60;49.50
57843;DHT22;43673;51.058;3.734;2022-08-03T11:44:07;36.00;50.10
57843;DHT22;43673;51.058;3.734;2022-08-03T11:46:36;35.70;50.80
57843;DHT22;43673;51.058;3.734;2022-08-03T11:49:03;35.50;51.30
57843;DHT22;43673;51.058;3.734;2022-08-03T11:51:30;35.30;51.00
57843;DHT22;43673;51.058;3.734;2022-08-03T11:54:04;35.00;51.70
57843;DHT22;43673;51.058;3.734;2022-08-03T11:56:47;34.80;52.10
57843;DHT22;43673;51.058;3.734;2022-08-03T11:59:14;34.50;52.00
57843;DHT22;43673;51.058;3.734;2022-08-03T12:01:40;34.40;52.20
57843;DHT22;43673;51.058;3.734;2022-08-03T12:04:06;34.30;52.60
57843;DHT22;43673;51.058;3.734;2022-08-03T12:06:32;34.30;52.60
57843;DHT22;43673;51.058;3.734;2022-08-03T12:09:17;34.40;52.80
57843;DHT22;43673;51.058;3.734;2022-08-03T12:11:47;34.40;53.00
57843;DHT22;43673;51.058;3.734;2022-08-03T12:14:17;34.40;52.90
57843;DHT22;43673;51.058;3.734;2022-08-03T12:16:47;34.50;52.70
57843;DHT22;43673;51.058;3.734;2022-08-03T12:19:16;34.50;52.70
57843;DHT22;43673;51.058;3.734;2022-08-03T12:21:49;34.50;52.60
57843;DHT22;43673;51.058;3.734;2022-08-03T12:24:15;34.40;52.50
57843;DHT22;43673;51.058;3.734;2022-08-03T12:26:46;34.70;52.70
57843;DHT22;43673;51.058;3.734;2022-08-03T12:29:19;34.50;52.50
57843;DHT22;43673;51.058;3.734;2022-08-03T12:31:45;34.60;52.90
57843;DHT22;43673;51.058;3.734;2022-08-03T12:34:11;34.40;53.20
57843;DHT22;43673;51.058;3.734;2022-08-03T12:36:50;34.30;53.30
57843;DHT22;43673;51.058;3.734;2022-08-03T12:39:16;34.40;53.70
57843;DHT22;43673;51.058;3.734;2022-08-03T12:41:42;34.50;53.40
57843;DHT22;43673;51.058;3.734;2022-08-03T12:44:08;34.40;53.20
57843;DHT22;43673;51.058;3.734;2022-08-03T12:46:36;34.50;52.80
57843;DHT22;43673;51.058;3.734;2022-08-03T12:49:11;34.50;52.70
57843;DHT22;43673;51.058;3.734;2022-08-03T12:54:15;34.10;53.40
57843;DHT22;43673;51.058;3.734;2022-08-03T12:57:06;34.20;53.50
57843;DHT22;43673;51.058;3.734;2022-08-03T12:59:34;34.20;53.30
57843;DHT22;43673;51.058;3.734;2022-08-03T13:02:02;34.10;53.40
57843;DHT22;43673;51.058;3.734;2022-08-03T13:04:32;33.80;53.50
57843;DHT22;43673;51.058;3.734;2022-08-03T13:07:07;33.70;54.10
57843;DHT22;43673;51.058;3.734;2022-08-03T13:10:03;33.60;54.60
57843;DHT22;43673;51.058;3.734;2022-08-03T13:12:28;33.60;54.50
57843;DHT22;43673;51.058;3.734;2022-08-03T13:14:59;33.80;54.30
57843;DHT22;43673;51.058;3.734;2022-08-03T13:17:26;33.90;54.50
57843;DHT22;43673;51.058;3.734;2022-08-03T13:19:52;34.00;53.70
57843;DHT22;43673;51.058;3.734;2022-08-03T13:22:23;34.10;53.80
57843;DHT22;43673;51.058;3.734;2022-08-03T13:24:51;34.20;53.50
57843;DHT22;43673;51.058;3.734;2022-08-03T13:27:18;34.20;53.80
57843;DHT22;43673;51.058;3.734;2022-08-03T13:29:47;34.20;53.90
57843;DHT22;43673;51.058;3.734;2022-08-03T13:32:12;34.20;53.60
57843;DHT22;43673;51.058;3.734;2022-08-03T13:34:38;34.00;53.50
57843;DHT22;43673;51.058;3.734;2022-08-03T13:37:04;34.00;53.70
57843;DHT22;43673;51.058;3.734;2022-08-03T13:39:30;33.90;53.80
57843;DHT22;43673;51.058;3.734;2022-08-03T13:41:56;34.00;54.00
57843;DHT22;43673;51.058;3.734;2022-08-03T13:44:26;34.10;54.00
57843;DHT22;43673;51.058;3.734;2022-08-03T13:46:52;34.10;53.90
57843;DHT22;43673;51.058;3.734;2022-08-03T13:51:49;34.30;53.80
57843;DHT22;43673;51.058;3.734;2022-08-03T13:54:15;34.50;53.00
57843;DHT22;43673;51.058;3.734;2022-08-03T13:56:41;34.60;53.00
57843;DHT22;43673;51.058;3.734;2022-08-03T13:59:10;34.70;52.60
57843;DHT22;43673;51.058;3.734;2022-08-03T14:01:39;34.70;52.40
57843;DHT22;43673;51.058;3.734;2022-08-03T14:04:06;34.70;52.10
57843;DHT22;43673;51.058;3.734;2022-08-03T14:06:31;34.60;52.40
57843;DHT22;43673;51.058;3.734;2022-08-03T14:08:57;34.60;52.90
57843;DHT22;43673;51.058;3.734;2022-08-03T14:11:23;34.50;52.70
57843;DHT22;43673;51.058;3.734;2022-08-03T14:13:49;34.70;52.80
57843;DHT22;43673;51.058;3.734;2022-08-03T14:16:14;34.70;52.80
57843;DHT22;43673;51.058;3.734;2022-08-03T14:18:40;34.70;52.40
57843;DHT22;43673;51.058;3.734;2022-08-03T14:21:06;34.60;52.30
57843;DHT22;43673;51.058;3.734;2022-08-03T14:23:33;34.70;52.50
57843;DHT22;43673;51.058;3.734;2022-08-03T14:25:59;34.70;52.50
57843;DHT22;43673;51.058;3.734;2022-08-03T14:28:25;34.80;52.10
57843;DHT22;43673;51.058;3.734;2022-08-03T14:30:52;34.90;52.20
57843;DHT22;43673;51.058;3.734;2022-08-03T14:33:19;34.90;51.90
57843;DHT22;43673;51.058;3.734;2022-08-03T14:35:44;35.00;51.80
57843;DHT22;43673;51.058;3.734;2022-08-03T14:38:10;35.00;52.20
57843;DHT22;43673;51.058;3.734;2022-08-03T14:40:36;35.00;51.90
57843;DHT22;43673;51.058;3.734;2022-08-03T14:43:02;35.10;51.90
57843;DHT22;43673;51.058;3.734;2022-08-03T14:45:27;35.30;51.40
57843;DHT22;43673;51.058;3.734;2022-08-03T14:47:53;35.40;50.80
57843;DHT22;43673;51.058;3.734;2022-08-03T14:50:19;35.40;50.70
57843;DHT22;43673;51.058;3.734;2022-08-03T14:52:45;35.40;50.90
57843;DHT22;43673;51.058;3.734;2022-08-03T14:55:11;35.40;50.80
57843;DHT22;43673;51.058;3.734;2022-08-03T14:57:37;35.40;50.80
57843;DHT22;43673;51.058;3.734;2022-08-03T15:00:09;35.10;50.70
57843;DHT22;43673;51.058;3.734;2022-08-03T15:02:35;34.90;51.40
57843;DHT22;43673;51.058;3.734;2022-08-03T15:05:02;34.50;52.10
57843;DHT22;43673;51.058;3.734;2022-08-03T15:07:27;34.60;52.10
57843;DHT22;43673;51.058;3.734;2022-08-03T15:09:57;34.80;51.90
57843;DHT22;43673;51.058;3.734;2022-08-03T15:12:24;35.00;51.30
57843;DHT22;43673;51.058;3.734;2022-08-03T15:14:52;35.20;50.80
57843;DHT22;43673;51.058;3.734;2022-08-03T15:17:18;35.40;50.20
57843;DHT22;43673;51.058;3.734;2022-08-03T15:19:43;35.50;50.30
57843;DHT22;43673;51.058;3.734;2022-08-03T15:22:15;35.60;49.80
57843;DHT22;43673;51.058;3.734;2022-08-03T15:24:41;35.70;50.00
57843;DHT22;43673;51.058;3.734;2022-08-03T15:27:08;35.70;49.40
57843;DHT22;43673;51.058;3.734;2022-08-03T15:29:33;35.70;50.00
57843;DHT22;43673;51.058;3.734;2022-08-03T15:32:05;35.70;49.50
57843;DHT22;43673;51.058;3.734;2022-08-03T15:34:31;35.70;49.40
57843;DHT22;43673;51.058;3.734;2022-08-03T15:36:56;35.70;49.10
57843;DHT22;43673;51.058;3.734;2022-08-03T15:39:22;35.50;49.50
57843;DHT22;43673;51.058;3.734;2022-08-03T15:41:48;35.50;49.50
57843;DHT22;43673;51.058;3.734;2022-08-03T15:44:17;35.40;49.40
57843;DHT22;43673;51.058;3.734;2022-08-03T15:46:44;35.60;49.40
57843;DHT22;43673;51.058;3.734;2022-08-03T15:49:10;35.60;49.30
57843;DHT22;43673;51.058;3.734;2022-08-03T15:51:35;35.70;49.00
57843;DHT22;43673;51.058;3.734;2022-08-03T15:54:03;35.50;48.90
57843;DHT22;43673;51.058;3.734;2022-08-03T15:56:29;35.60;48.80
57843;DHT22;43673;51.058;3.734;2022-08-03T15:58:55;35.60;48.80
57843;DHT22;43673;51.058;3.734;2022-08-03T16:01:24;35.40;48.90
57843;DHT22;43673;51.058;3.734;2022-08-03T16:03:50;35.50;49.20
57843;DHT22;43673;51.058;3.734;2022-08-03T16:06:16;35.70;49.10
57843;DHT22;43673;51.058;3.734;2022-08-03T16:08:43;35.80;48.80
57843;DHT22;43673;51.058;3.734;2022-08-03T16:11:09;35.90;48.30
57843;DHT22;43673;51.058;3.734;2022-08-03T16:13:35;35.90;48.50
57843;DHT22;43673;51.058;3.734;2022-08-03T16:16:01;36.00;48.20